createdAt,value
2024-01-20T00:01:05.169Z,8.57
2024-01-20T00:03:07.064Z,14.02
2024-01-20T00:05:09.439Z,11.02
2024-01-20T00:07:11.509Z,8.73
2024-01-20T00:09:13.470Z,7.32
2024-01-20T00:11:15.835Z,11.80
2024-01-20T00:13:17.965Z,7.22
2024-01-20T00:15:19.818Z,6.97
2024-01-20T00:17:25.784Z,6.65
2024-01-20T00:19:29.605Z,7.97
2024-01-20T00:21:31.741Z,10.27
2024-01-20T00:23:33.731Z,8.07
2024-01-20T00:25:35.831Z,6.25
2024-01-20T00:27:37.782Z,5.93
2024-01-20T00:29:39.673Z,4.85
2024-01-20T00:31:41.692Z,3.88
2024-01-20T00:33:43.809Z,6.47
2024-01-20T00:35:46.349Z,7.65
2024-01-20T00:37:48.283Z,5.07
2024-01-20T00:39:50.172Z,8.27
2024-01-20T00:41:52.069Z,4.03
2024-01-20T00:43:53.968Z,7.88
2024-01-20T00:45:55.845Z,7.88
2024-01-20T00:47:57.690Z,4.93
2024-01-20T00:49:59.730Z,8.40
2024-01-20T00:52:01.641Z,5.75
2024-01-20T00:54:03.625Z,7.70
2024-01-20T00:56:05.840Z,6.68
2024-01-20T00:58:07.725Z,6.75
2024-01-20T01:00:10.702Z,4.90
2024-01-20T01:02:13.381Z,4.15
2024-01-20T01:04:15.231Z,4.05
2024-01-20T01:06:17.101Z,5.28
2024-01-20T01:08:19.233Z,6.00
2024-01-20T01:10:21.110Z,8.07
2024-01-20T01:12:22.993Z,5.93
2024-01-20T01:14:24.964Z,6.53
2024-01-20T01:16:26.890Z,4.43
2024-01-20T01:18:31.970Z,6.45
2024-01-20T01:20:33.867Z,5.65
2024-01-20T01:22:35.798Z,6.78
2024-01-20T01:24:38.985Z,4.47
2024-01-20T01:26:40.925Z,6.95
2024-01-20T01:28:43.038Z,4.10
2024-01-20T01:30:45.731Z,6.70
2024-01-20T01:32:47.697Z,3.17
2024-01-20T01:34:49.553Z,5.10
2024-01-20T01:36:51.401Z,5.30
2024-01-20T01:38:53.373Z,5.43
2024-01-20T01:40:55.268Z,4.97
2024-01-20T01:42:58.395Z,6.32
2024-01-20T01:45:00.359Z,5.20
2024-01-20T01:47:02.254Z,4.63
2024-01-20T01:49:04.911Z,4.68
2024-01-20T01:51:06.898Z,6.45
2024-01-20T01:53:08.735Z,4.45
2024-01-20T01:55:10.570Z,5.57
2024-01-20T01:57:12.500Z,6.30
2024-01-20T01:59:15.397Z,6.53
2024-01-20T02:01:17.369Z,6.25
2024-01-20T02:03:19.440Z,4.72
2024-01-20T02:05:21.511Z,7.95
2024-01-20T02:07:23.488Z,4.05
2024-01-20T02:09:25.594Z,4.43
2024-01-20T02:11:28.037Z,3.70
2024-01-20T02:13:29.954Z,4.72
2024-01-20T02:15:32.047Z,5.40
2024-01-20T02:17:33.984Z,4.90
2024-01-20T02:19:39.964Z,3.78
2024-01-20T02:21:42.551Z,3.92
2024-01-20T02:23:44.420Z,3.88
2024-01-20T02:25:47.241Z,4.28
2024-01-20T02:27:49.264Z,4.75
2024-01-20T02:29:51.125Z,3.60
2024-01-20T02:31:53.036Z,4.57
2024-01-20T02:33:55.086Z,5.28
2024-01-20T02:35:57.017Z,7.38
2024-01-20T02:38:01.175Z,3.83
2024-01-20T02:40:03.336Z,4.75
2024-01-20T02:42:09.681Z,4.03
2024-01-20T02:44:12.793Z,4.80
2024-01-20T02:46:14.629Z,4.75
2024-01-20T02:48:18.045Z,5.20
2024-01-20T02:50:21.348Z,4.30
2024-01-20T02:52:23.193Z,4.82
2024-01-20T02:54:25.086Z,4.40
2024-01-20T02:56:27.004Z,4.60
2024-01-20T02:58:28.901Z,3.97
2024-01-20T03:00:30.866Z,3.92
2024-01-20T03:02:35.943Z,4.97
2024-01-20T03:04:37.883Z,3.72
2024-01-20T03:06:39.816Z,4.25
2024-01-20T03:08:41.685Z,4.10
2024-01-20T03:10:43.996Z,3.88
2024-01-20T03:12:45.873Z,4.15
2024-01-20T03:14:47.750Z,3.63
2024-01-20T03:16:49.616Z,3.25
2024-01-20T03:18:51.585Z,4.38
2024-01-20T03:20:53.583Z,3.90
2024-01-20T03:22:55.592Z,3.40
2024-01-20T03:24:57.524Z,5.35
2024-01-20T03:27:00.022Z,3.88
2024-01-20T03:29:02.134Z,3.92
2024-01-20T03:31:04.188Z,4.63
2024-01-20T03:33:06.219Z,3.78
2024-01-20T03:35:08.713Z,3.45
2024-01-20T03:37:10.554Z,3.58
2024-01-20T03:39:12.752Z,3.00
2024-01-20T03:41:14.859Z,4.50
2024-01-20T03:43:16.756Z,3.97
2024-01-20T03:45:18.608Z,4.85
2024-01-20T03:47:20.836Z,4.28
2024-01-20T03:49:22.893Z,2.90
2024-01-20T03:51:28.214Z,4.00
2024-01-20T03:53:30.318Z,3.58
2024-01-20T03:55:32.215Z,3.75
2024-01-20T03:57:34.136Z,3.53
2024-01-20T03:59:36.041Z,5.43
2024-01-20T04:01:38.225Z,4.53
2024-01-20T04:03:40.187Z,4.03
2024-01-20T04:05:42.221Z,4.18
2024-01-20T04:07:44.168Z,4.45
2024-01-20T04:09:46.028Z,3.25
2024-01-20T04:11:48.315Z,4.60
2024-01-20T04:13:50.132Z,4.18
2024-01-20T04:15:54.831Z,4.13
2024-01-20T04:17:56.859Z,3.80
2024-01-20T04:19:58.902Z,4.55
2024-01-20T04:22:00.787Z,3.35
2024-01-20T04:24:02.766Z,4.95
2024-01-20T04:26:04.708Z,4.43
2024-01-20T04:28:06.650Z,3.67
2024-01-20T04:30:09.967Z,4.07
2024-01-20T04:32:11.883Z,3.63
2024-01-20T04:34:14.080Z,3.70
2024-01-20T04:36:16.244Z,3.92
2024-01-20T04:38:18.065Z,4.47
2024-01-20T04:40:20.023Z,3.70
2024-01-20T04:42:21.907Z,3.78
2024-01-20T04:44:24.325Z,3.35
2024-01-20T04:46:26.221Z,3.67
2024-01-20T04:48:28.334Z,3.60
2024-01-20T04:50:30.284Z,3.90
2024-01-20T04:52:32.121Z,3.53
2024-01-20T04:54:34.068Z,4.00
2024-01-20T04:56:36.003Z,3.50
2024-01-20T04:58:38.388Z,3.53
2024-01-20T05:00:40.685Z,4.15
2024-01-20T05:02:42.750Z,3.83
2024-01-20T05:04:44.712Z,3.70
2024-01-20T05:06:47.160Z,4.55
2024-01-20T05:08:49.188Z,3.80
2024-01-20T05:10:51.094Z,3.72
2024-01-20T05:12:53.143Z,3.83
2024-01-20T05:14:55.932Z,4.15
2024-01-20T05:16:57.847Z,4.53
2024-01-20T05:19:00.027Z,4.90
2024-01-20T05:21:02.076Z,4.20
2024-01-20T05:23:04.146Z,3.78
2024-01-20T05:25:06.250Z,4.80
2024-01-20T05:27:08.130Z,4.35
2024-01-20T05:29:10.451Z,4.63
2024-01-20T05:31:12.337Z,4.05
2024-01-20T05:33:14.429Z,3.95
2024-01-20T05:35:16.587Z,4.55
2024-01-20T05:37:18.464Z,3.38
2024-01-20T05:39:20.374Z,3.35
2024-01-20T05:41:22.272Z,3.60
2024-01-20T05:43:24.180Z,5.07
2024-01-20T05:45:26.080Z,3.63
2024-01-20T05:47:28.014Z,3.60
2024-01-20T05:49:30.158Z,4.72
2024-01-20T05:51:32.213Z,4.18
2024-01-20T05:53:34.196Z,3.55
2024-01-20T05:55:36.211Z,4.20
2024-01-20T05:57:38.414Z,3.25
2024-01-20T05:59:40.292Z,4.03
2024-01-20T06:01:42.275Z,5.00
2024-01-20T06:03:44.715Z,3.40
2024-01-20T06:05:47.223Z,3.72
2024-01-20T06:07:49.120Z,4.20
2024-01-20T06:09:50.979Z,3.50
2024-01-20T06:11:52.878Z,3.78
2024-01-20T06:13:54.854Z,3.95
2024-01-20T06:15:56.804Z,3.40
2024-01-20T06:17:58.685Z,3.75
2024-01-20T06:20:00.576Z,4.53
2024-01-20T06:22:02.768Z,4.75
2024-01-20T06:24:04.916Z,3.92
2024-01-20T06:26:06.943Z,6.25
2024-01-20T06:28:09.142Z,4.07
2024-01-20T06:30:11.719Z,4.15
2024-01-20T06:32:13.577Z,3.80
2024-01-20T06:34:15.699Z,4.18
2024-01-20T06:36:17.687Z,4.15
2024-01-20T06:38:19.617Z,3.78
2024-01-20T06:40:21.470Z,3.50
2024-01-20T06:42:23.335Z,4.50
2024-01-20T06:44:25.222Z,3.83
2024-01-20T06:46:29.767Z,4.13
2024-01-20T06:48:34.132Z,4.30
2024-01-20T06:50:40.998Z,4.22
2024-01-20T06:52:43.511Z,4.43
2024-01-20T06:54:45.478Z,4.03
2024-01-20T06:56:47.337Z,5.45
2024-01-20T06:58:49.193Z,3.92
2024-01-20T07:00:51.830Z,4.97
2024-01-20T07:02:53.869Z,4.00
2024-01-20T07:04:55.696Z,4.40
2024-01-20T07:06:57.552Z,3.92
2024-01-20T07:08:59.514Z,4.10
2024-01-20T07:11:01.429Z,4.57
2024-01-20T07:13:03.368Z,4.38
2024-01-20T07:15:07.240Z,4.07
2024-01-20T07:17:09.187Z,3.70
2024-01-20T07:19:11.015Z,4.70
2024-01-20T07:21:12.962Z,5.07
2024-01-20T07:23:15.006Z,7.53
2024-01-20T07:25:18.017Z,4.00
2024-01-20T07:27:19.899Z,6.05
2024-01-20T07:29:21.845Z,4.57
2024-01-20T07:31:24.102Z,4.95
2024-01-20T07:33:26.144Z,5.10
2024-01-20T07:35:28.220Z,4.35
2024-01-20T07:37:30.044Z,4.22
2024-01-20T07:39:32.025Z,4.35
2024-01-20T07:41:34.205Z,4.05
2024-01-20T07:43:36.033Z,4.40
2024-01-20T07:45:39.592Z,5.18
2024-01-20T07:47:41.526Z,4.63
2024-01-20T07:49:43.683Z,4.10
2024-01-20T07:51:45.684Z,4.32
2024-01-20T07:53:48.482Z,4.28
2024-01-20T07:55:50.324Z,3.42
2024-01-20T07:57:52.255Z,4.53
2024-01-20T07:59:54.358Z,4.00
2024-01-20T08:01:56.356Z,3.92
2024-01-20T08:03:58.909Z,4.22
2024-01-20T08:06:01.630Z,4.28
2024-01-20T08:08:03.699Z,4.72
2024-01-20T08:10:06.122Z,4.22
2024-01-20T08:12:08.007Z,4.38
2024-01-20T08:14:09.882Z,8.27
2024-01-20T08:16:11.968Z,3.90
2024-01-20T08:18:13.983Z,4.82
2024-01-20T08:20:15.915Z,4.85
2024-01-20T08:22:18.977Z,4.32
2024-01-20T08:24:20.857Z,4.60
2024-01-20T08:26:22.825Z,4.07
2024-01-20T08:28:24.689Z,4.15
2024-01-20T08:30:26.834Z,4.38
2024-01-20T08:32:28.905Z,3.83
2024-01-20T08:34:30.860Z,4.68
2024-01-20T08:36:32.806Z,3.88
2024-01-20T08:38:34.673Z,4.07
2024-01-20T08:40:36.727Z,3.97
2024-01-20T08:42:38.612Z,4.40
2024-01-20T08:44:40.500Z,4.10
2024-01-20T08:46:42.540Z,4.78
2024-01-20T08:48:44.574Z,4.78
2024-01-20T08:50:46.498Z,5.20
2024-01-20T08:52:48.425Z,3.75
2024-01-20T08:54:50.285Z,7.78
2024-01-20T08:56:52.139Z,7.85
2024-01-20T08:58:54.310Z,9.05
2024-01-20T09:00:57.040Z,13.85
2024-01-20T09:02:59.122Z,12.30
2024-01-20T09:05:01.111Z,13.00
2024-01-20T09:07:03.175Z,15.35
2024-01-20T09:09:05.107Z,11.15
2024-01-20T09:11:06.967Z,10.45
2024-01-20T09:13:08.882Z,13.40
2024-01-20T09:15:12.202Z,10.23
2024-01-20T09:17:14.305Z,11.60
2024-01-20T09:19:16.213Z,11.40
2024-01-20T09:21:18.178Z,16.00
2024-01-20T09:23:20.072Z,10.50
2024-01-20T09:25:21.929Z,12.05
2024-01-20T09:27:24.664Z,13.20
2024-01-20T09:29:26.832Z,8.00
2024-01-20T09:31:28.804Z,14.25
2024-01-20T09:33:30.961Z,9.38
2024-01-20T09:35:33.018Z,6.03
2024-01-20T09:37:37.917Z,9.00
2024-01-20T09:39:40.120Z,11.52
2024-01-20T09:41:42.543Z,23.42
2024-01-20T09:43:44.458Z,13.65
2024-01-20T09:45:46.887Z,17.90
2024-01-20T09:47:49.137Z,11.27
2024-01-20T09:49:51.221Z,13.35
2024-01-20T09:51:53.377Z,9.98
2024-01-20T09:54:00.685Z,12.02
2024-01-20T09:56:03.570Z,9.88
2024-01-20T09:58:05.517Z,8.20
2024-01-20T10:00:08.192Z,14.23
2024-01-20T10:02:11.621Z,20.67
2024-01-20T10:04:13.775Z,12.60
2024-01-20T10:06:15.779Z,16.63
2024-01-20T10:08:17.656Z,20.23
2024-01-20T10:10:21.362Z,19.80
2024-01-20T10:12:25.991Z,14.65
2024-01-20T10:14:27.857Z,16.65
2024-01-20T10:16:38.451Z,14.63
2024-01-20T10:18:40.603Z,16.77
2024-01-20T10:20:43.511Z,12.40
2024-01-20T10:22:51.077Z,12.32
2024-01-20T10:24:53.508Z,15.68
2024-01-20T10:26:55.517Z,13.52
2024-01-20T10:28:57.369Z,8.82
2024-01-20T10:30:59.295Z,11.35
2024-01-20T10:33:09.400Z,11.13
2024-01-20T10:35:12.934Z,9.10
2024-01-20T10:37:15.421Z,19.85
2024-01-20T10:39:21.287Z,16.17
2024-01-20T10:41:25.106Z,18.50
2024-01-20T10:43:28.279Z,17.73
2024-01-20T10:45:36.932Z,14.32
2024-01-20T10:47:41.573Z,12.65
2024-01-20T10:49:47.274Z,18.88
2024-01-20T10:51:49.890Z,11.68
2024-01-20T10:53:52.001Z,15.65
2024-01-20T10:55:54.257Z,27.27
2024-01-20T10:57:56.112Z,19.67
2024-01-20T10:59:59.113Z,15.80
2024-01-20T11:02:00.991Z,14.02
2024-01-20T11:04:03.164Z,14.98
2024-01-20T11:06:05.545Z,11.45
2024-01-20T11:08:09.868Z,9.75
2024-01-20T11:10:11.751Z,15.45
2024-01-20T11:12:13.705Z,20.25
2024-01-20T11:14:16.770Z,14.35
2024-01-20T11:16:22.759Z,14.85
2024-01-20T11:18:24.879Z,13.77
2024-01-20T11:20:27.666Z,13.85
2024-01-20T11:22:36.396Z,18.13
2024-01-20T11:24:39.858Z,14.13
2024-01-20T11:26:42.318Z,16.88
2024-01-20T11:28:44.953Z,16.08
2024-01-20T11:30:46.842Z,20.02
2024-01-20T11:32:48.872Z,18.55
2024-01-20T11:34:50.894Z,16.15
2024-01-20T11:36:53.853Z,14.57
2024-01-20T11:38:56.527Z,15.27
2024-01-20T11:40:59.344Z,14.07
2024-01-20T11:43:07.911Z,15.13
2024-01-20T11:45:10.256Z,18.55
2024-01-20T11:47:12.097Z,24.38
2024-01-20T11:49:13.989Z,21.75
2024-01-20T11:51:16.695Z,15.77
2024-01-20T11:53:21.548Z,13.63
2024-01-20T11:55:23.467Z,16.77
2024-01-20T11:57:28.076Z,13.55
2024-01-20T11:59:29.943Z,22.33
2024-01-20T12:01:31.830Z,13.60
2024-01-20T12:03:33.812Z,13.90
2024-01-20T12:05:35.946Z,26.27
2024-01-20T12:07:37.826Z,17.30
2024-01-20T12:09:45.007Z,14.05
2024-01-20T12:11:47.271Z,11.60
2024-01-20T12:13:49.390Z,19.60
2024-01-20T12:15:51.291Z,13.48
2024-01-20T12:17:53.190Z,11.32
2024-01-20T12:19:55.345Z,11.82
2024-01-20T12:21:57.801Z,19.13
2024-01-20T12:23:59.703Z,17.65
2024-01-20T12:26:01.686Z,13.52
2024-01-20T12:28:03.765Z,11.90
2024-01-20T12:30:06.118Z,8.45
2024-01-20T12:32:08.500Z,12.77
2024-01-20T12:34:10.527Z,26.50
2024-01-20T12:36:12.679Z,16.15
2024-01-20T12:38:14.574Z,14.30
2024-01-20T12:40:16.984Z,13.75
2024-01-20T12:42:18.871Z,10.73
2024-01-20T12:44:21.414Z,11.93
2024-01-20T12:46:23.308Z,7.40
2024-01-20T12:48:25.445Z,10.82
2024-01-20T12:50:27.496Z,14.05
2024-01-20T12:52:29.410Z,9.63
2024-01-20T12:54:31.317Z,14.18
2024-01-20T12:56:33.212Z,15.35
2024-01-20T12:58:35.151Z,9.25
2024-01-20T13:00:37.257Z,9.48
2024-01-20T13:02:39.215Z,10.43
2024-01-20T13:04:43.356Z,11.63
2024-01-20T13:06:45.308Z,9.98
2024-01-20T13:08:47.299Z,8.43
2024-01-20T13:10:51.346Z,11.23
2024-01-20T13:12:53.226Z,9.63
2024-01-20T13:14:55.200Z,10.52
2024-01-20T13:16:57.233Z,8.90
2024-01-20T13:19:00.015Z,11.43
2024-01-20T13:21:02.056Z,12.48
2024-01-20T13:23:04.203Z,8.60
2024-01-20T13:25:06.718Z,19.30
2024-01-20T13:27:08.970Z,12.70
2024-01-20T13:29:12.412Z,7.82
2024-01-20T13:31:14.763Z,13.07
2024-01-20T13:33:16.689Z,18.92
2024-01-20T13:35:18.551Z,11.35
2024-01-20T13:37:22.304Z,14.38
2024-01-20T13:39:26.179Z,18.60
2024-01-20T13:41:31.005Z,13.88
2024-01-20T13:43:32.971Z,14.80
2024-01-20T13:45:35.472Z,11.40
2024-01-20T13:47:37.497Z,17.23
2024-01-20T13:49:39.546Z,17.55
2024-01-20T13:51:41.644Z,13.00
2024-01-20T13:53:43.519Z,7.88
2024-01-20T13:55:45.402Z,10.95
2024-01-20T13:57:47.346Z,14.45
2024-01-20T13:59:49.241Z,11.63
2024-01-20T14:01:53.782Z,17.98
2024-01-20T14:03:55.944Z,31.50
2024-01-20T14:05:58.299Z,27.52
2024-01-20T14:08:00.960Z,29.85
2024-01-20T14:10:03.148Z,26.85
2024-01-20T14:12:05.415Z,24.45
2024-01-20T14:14:07.291Z,28.25
2024-01-20T14:16:09.207Z,18.15
2024-01-20T14:18:11.478Z,21.23
2024-01-20T14:20:13.874Z,28.85
2024-01-20T14:22:16.252Z,19.50
2024-01-20T14:24:18.410Z,22.38
2024-01-20T14:26:20.221Z,22.80
2024-01-20T14:28:22.617Z,13.48
2024-01-20T14:30:24.484Z,17.40
2024-01-20T14:32:26.440Z,21.75
2024-01-20T14:34:28.467Z,16.40
2024-01-20T14:36:30.350Z,20.63
2024-01-20T14:38:32.197Z,16.67
2024-01-20T14:40:34.072Z,20.42
2024-01-20T14:42:35.982Z,14.05
2024-01-20T14:44:37.913Z,18.70
2024-01-20T14:46:39.806Z,20.00
2024-01-20T14:48:41.887Z,16.88
2024-01-20T14:50:44.554Z,16.58
2024-01-20T14:52:46.529Z,28.25
2024-01-20T14:54:50.656Z,18.83
2024-01-20T14:56:52.613Z,18.40
2024-01-20T14:58:54.485Z,16.30
2024-01-20T15:00:56.417Z,12.10
2024-01-20T15:02:58.432Z,17.67
2024-01-20T15:05:00.370Z,19.05
2024-01-20T15:07:04.978Z,13.95
2024-01-20T15:09:07.939Z,13.75
2024-01-20T15:11:09.822Z,16.85
2024-01-20T15:13:11.693Z,14.45
2024-01-20T15:15:13.910Z,14.55
2024-01-20T15:17:16.051Z,12.70
2024-01-20T15:19:18.071Z,10.23
2024-01-20T15:21:19.993Z,13.88
2024-01-20T15:23:21.925Z,12.98
2024-01-20T15:25:23.809Z,14.02
2024-01-20T15:27:25.797Z,11.77
2024-01-20T15:29:27.795Z,15.73
2024-01-20T15:31:29.724Z,14.43
2024-01-20T15:33:31.703Z,14.55
2024-01-20T15:35:33.625Z,6.90
2024-01-20T15:37:36.205Z,9.90
2024-01-20T15:39:38.176Z,11.43
2024-01-20T15:41:40.202Z,11.75
2024-01-20T15:43:42.085Z,11.95
2024-01-20T15:45:44.051Z,13.88
2024-01-20T15:47:46.130Z,17.00
2024-01-20T15:49:48.487Z,15.07
2024-01-20T15:51:51.318Z,8.25
2024-01-20T15:53:53.325Z,21.02
2024-01-20T15:55:55.166Z,11.27
2024-01-20T15:57:57.041Z,7.50
2024-01-20T15:59:59.357Z,10.93
2024-01-20T16:02:01.221Z,13.27
2024-01-20T16:04:04.208Z,16.35
2024-01-20T16:06:06.383Z,12.75
2024-01-20T16:08:08.371Z,12.45
2024-01-20T16:10:10.376Z,17.10
2024-01-20T16:12:12.351Z,14.70
2024-01-20T16:14:14.225Z,14.63
2024-01-20T16:16:16.158Z,13.30
2024-01-20T16:18:18.352Z,12.52
2024-01-20T16:20:20.597Z,19.15
2024-01-20T16:22:22.512Z,27.55
2024-01-20T16:24:24.786Z,30.13
2024-01-20T16:26:26.623Z,26.73
2024-01-20T16:28:30.876Z,25.13
2024-01-20T16:30:34.447Z,23.23
2024-01-20T16:32:36.398Z,23.27
2024-01-20T16:34:38.741Z,32.60
2024-01-20T16:36:40.883Z,22.15
2024-01-20T20:26:12.281Z,117.60
2024-01-20T20:28:14.138Z,124.22
2024-01-20T20:30:16.321Z,107.18
2024-01-20T20:32:21.802Z,76.82
2024-01-20T20:34:24.368Z,80.28
2024-01-20T20:36:26.951Z,104.72
2024-01-20T20:38:28.819Z,100.63
2024-01-20T20:40:30.680Z,70.60
2024-01-20T20:42:32.621Z,68.03
2024-01-20T20:44:34.734Z,65.25
2024-01-20T20:46:36.873Z,92.03
2024-01-20T20:48:38.723Z,191.02
2024-01-20T20:50:40.627Z,504.13
2024-01-20T20:52:44.334Z,242.00
2024-01-20T20:54:47.985Z,228.77
2024-01-20T20:56:50.031Z,217.07
2024-01-20T20:58:51.937Z,192.20
2024-01-20T21:00:54.162Z,197.38
2024-01-20T21:02:56.230Z,173.30
2024-01-20T21:04:58.121Z,161.07
2024-01-20T21:07:01.377Z,169.65
2024-01-20T21:09:03.688Z,159.13
2024-01-20T21:11:05.828Z,112.82
2024-01-20T21:13:07.891Z,134.93
2024-01-20T21:15:10.128Z,123.85
2024-01-20T21:17:12.010Z,125.90
2024-01-20T21:19:17.476Z,106.03
2024-01-20T21:21:19.589Z,139.88
2024-01-20T21:23:21.508Z,127.07
2024-01-20T21:25:24.197Z,102.20
2024-01-20T21:27:27.938Z,110.57
2024-01-20T21:29:29.804Z,110.18
2024-01-20T21:31:31.718Z,105.35
2024-01-20T21:33:33.921Z,81.13
2024-01-20T21:35:36.136Z,99.28
2024-01-20T21:37:38.019Z,91.60
2024-01-20T21:39:41.003Z,84.65
2024-01-20T21:41:42.880Z,88.13
2024-01-20T21:43:44.731Z,87.65
2024-01-20T21:45:46.758Z,80.20
2024-01-20T21:47:48.743Z,60.15
2024-01-20T21:49:50.680Z,77.30
2024-01-20T21:51:56.257Z,68.85
2024-01-20T21:53:58.252Z,70.43
2024-01-20T21:56:00.146Z,72.28
2024-01-20T21:58:02.166Z,62.60
2024-01-20T22:00:08.282Z,48.78
2024-01-20T22:02:10.341Z,81.53
2024-01-20T22:04:12.235Z,64.78
2024-01-20T22:06:14.231Z,52.17
2024-01-20T22:08:16.093Z,58.20
2024-01-20T22:10:18.211Z,53.95
2024-01-20T22:12:20.147Z,70.78
2024-01-20T22:14:22.042Z,85.22
2024-01-20T22:16:24.957Z,54.92
2024-01-20T22:18:27.865Z,50.47
2024-01-20T22:20:30.255Z,52.53
2024-01-20T22:22:33.640Z,46.95
2024-01-20T22:24:35.573Z,45.40
2024-01-20T22:26:37.687Z,38.92
2024-01-20T22:28:39.549Z,40.22
2024-01-20T22:30:41.450Z,49.00
2024-01-20T22:32:43.388Z,44.47
2024-01-20T22:34:46.450Z,47.00
2024-01-20T22:36:48.548Z,38.22
2024-01-20T22:38:50.551Z,45.92
2024-01-20T22:40:55.172Z,33.03
2024-01-20T22:42:57.409Z,32.97
2024-01-20T22:44:59.353Z,37.03
2024-01-20T22:47:01.310Z,32.00
2024-01-20T22:49:03.289Z,28.50
2024-01-20T22:51:05.560Z,33.88
2024-01-20T22:53:07.501Z,43.70
2024-01-20T22:55:09.739Z,41.33
2024-01-20T22:57:11.933Z,51.42
2024-01-20T22:59:13.901Z,49.80
2024-01-20T23:01:17.500Z,39.22
2024-01-20T23:03:19.596Z,34.80
2024-01-20T23:05:21.688Z,42.28
2024-01-20T23:07:23.650Z,35.58
2024-01-20T23:09:27.416Z,31.10
2024-01-20T23:11:29.472Z,30.77
2024-01-20T23:13:31.421Z,38.33
2024-01-20T23:15:33.344Z,36.15
2024-01-20T23:17:35.625Z,28.02
2024-01-20T23:19:37.534Z,27.55
2024-01-20T23:21:39.600Z,22.58
2024-01-20T23:23:41.529Z,27.25
2024-01-20T23:25:43.471Z,28.88
2024-01-20T23:27:45.403Z,26.70
2024-01-20T23:29:47.449Z,23.73
2024-01-20T23:31:49.313Z,25.67
2024-01-20T23:33:51.389Z,24.40
2024-01-20T23:35:53.419Z,24.80
2024-01-20T23:37:55.324Z,28.27
2024-01-20T23:39:57.177Z,27.13
2024-01-20T23:41:59.079Z,23.80
2024-01-20T23:44:00.945Z,20.23
2024-01-20T23:46:03.478Z,20.63
2024-01-20T23:48:05.664Z,13.07
2024-01-20T23:50:07.734Z,21.90
2024-01-20T23:52:09.590Z,19.20
2024-01-20T23:54:11.537Z,13.55
2024-01-20T23:56:13.492Z,22.58
2024-01-20T23:58:15.412Z,18.35
